createdAt,value
2019-01-26T00:01:41.364Z,58.80
2019-01-26T00:04:11.322Z,71.65
2019-01-26T00:06:40.886Z,64.37
2019-01-26T00:09:10.465Z,64.03
2019-01-26T00:11:39.960Z,63.63
2019-01-26T00:14:09.442Z,63.40
2019-01-26T00:16:38.986Z,58.40
2019-01-26T00:19:08.516Z,59.30
2019-01-26T00:21:38.005Z,49.95
2019-01-26T00:24:08.037Z,57.40
2019-01-26T00:26:38.099Z,59.05
2019-01-26T00:29:07.562Z,54.10
2019-01-26T00:31:37.056Z,47.53
2019-01-26T00:34:06.635Z,51.85
2019-01-26T00:36:36.093Z,62.62
2019-01-26T00:39:08.570Z,49.10
2019-01-26T00:41:38.073Z,52.03
2019-01-26T00:44:07.547Z,50.90
2019-01-26T00:46:37.043Z,47.88
2019-01-26T00:49:06.570Z,49.80
2019-01-26T00:51:36.072Z,42.60
2019-01-26T00:54:05.957Z,45.28
2019-01-26T00:56:35.464Z,41.58
2019-01-26T00:59:05.125Z,41.75
2019-01-26T01:01:34.671Z,38.58
2019-01-26T01:04:04.614Z,46.08
2019-01-26T01:06:34.088Z,31.65
2019-01-26T01:09:05.278Z,33.30
2019-01-26T01:11:34.934Z,35.68
2019-01-26T01:14:04.849Z,45.35
2019-01-26T01:16:35.913Z,33.48
2019-01-26T01:19:05.624Z,39.40
2019-01-26T01:21:35.115Z,38.98
2019-01-26T01:24:04.662Z,34.65
2019-01-26T01:26:34.244Z,33.75
2019-01-26T01:29:04.372Z,34.38
2019-01-26T01:31:33.880Z,36.93
2019-01-26T01:34:03.558Z,34.25
2019-01-26T01:36:33.038Z,40.98
2019-01-26T01:39:02.583Z,33.73
2019-01-26T01:41:32.079Z,38.15
2019-01-26T01:44:01.567Z,38.95
2019-01-26T01:46:31.154Z,32.83
2019-01-26T01:49:00.678Z,33.28
2019-01-26T01:51:30.154Z,39.30
2019-01-26T01:53:59.642Z,36.03
2019-01-26T01:56:29.231Z,33.20
2019-01-26T01:58:58.680Z,36.63
2019-01-26T02:01:28.260Z,41.45
2019-01-26T02:03:57.770Z,46.02
2019-01-26T02:06:27.238Z,36.77
2019-01-26T02:08:56.740Z,49.85
2019-01-26T02:11:26.247Z,41.20
2019-01-26T02:13:55.730Z,45.98
2019-01-26T02:16:25.214Z,50.08
2019-01-26T02:18:55.283Z,52.00
2019-01-26T02:21:24.762Z,47.20
2019-01-26T02:23:54.247Z,46.15
2019-01-26T02:26:23.746Z,50.03
2019-01-26T02:28:53.252Z,45.12
2019-01-26T02:31:22.730Z,49.23
2019-01-26T02:33:52.270Z,49.23
2019-01-26T02:36:21.734Z,48.20
2019-01-26T02:38:51.202Z,52.55
2019-01-26T02:41:21.026Z,51.15
2019-01-26T02:43:50.508Z,48.10
2019-01-26T02:46:19.995Z,54.75
2019-01-26T02:48:49.532Z,51.02
2019-01-26T02:51:18.999Z,49.53
2019-01-26T02:53:48.490Z,58.83
2019-01-26T02:56:18.150Z,54.13
2019-01-26T02:58:47.640Z,49.93
2019-01-26T03:01:17.119Z,55.15
2019-01-26T03:03:46.921Z,46.18
2019-01-26T03:06:16.407Z,56.13
2019-01-26T03:08:45.901Z,50.12
2019-01-26T03:11:15.511Z,51.95
2019-01-26T03:13:45.014Z,49.73
2019-01-26T03:16:14.584Z,60.40
2019-01-26T03:18:44.188Z,53.33
2019-01-26T03:21:13.675Z,56.90
2019-01-26T03:23:43.524Z,52.70
2019-01-26T03:26:13.379Z,62.05
2019-01-26T03:28:42.885Z,58.02
2019-01-26T03:31:12.383Z,51.02
2019-01-26T03:33:42.893Z,55.50
2019-01-26T03:36:12.373Z,58.17
2019-01-26T03:38:41.883Z,60.30
2019-01-26T03:41:11.405Z,67.30
2019-01-26T03:43:40.913Z,55.20
2019-01-26T03:46:10.378Z,61.42
2019-01-26T03:48:40.497Z,53.42
2019-01-26T03:51:09.988Z,63.78
2019-01-26T03:53:39.486Z,60.30
2019-01-26T03:56:09.145Z,56.88
2019-01-26T03:58:38.785Z,66.85
2019-01-26T04:01:08.264Z,58.73
2019-01-26T04:03:37.874Z,59.55
2019-01-26T04:06:07.384Z,53.20
2019-01-26T04:08:36.883Z,57.08
2019-01-26T04:11:06.792Z,64.37
2019-01-26T04:13:36.294Z,67.78
2019-01-26T04:16:05.869Z,63.83
2019-01-26T04:18:35.354Z,59.23
2019-01-26T04:21:04.886Z,60.08
2019-01-26T04:23:34.361Z,66.55
2019-01-26T04:26:03.867Z,56.02
2019-01-26T04:28:33.368Z,51.63
2019-01-26T04:31:02.846Z,54.48
2019-01-26T04:33:32.736Z,48.95
2019-01-26T04:36:02.187Z,45.15
2019-01-26T04:38:31.690Z,51.48
2019-01-26T04:41:01.180Z,46.30
2019-01-26T04:43:30.666Z,50.60
2019-01-26T04:46:00.146Z,36.08
2019-01-26T04:48:29.665Z,50.50
2019-01-26T04:50:59.121Z,45.95
2019-01-26T04:53:28.610Z,54.38
2019-01-26T04:55:58.183Z,40.60
2019-01-26T04:58:27.655Z,43.50
2019-01-26T05:00:57.124Z,46.68
2019-01-26T05:03:26.764Z,45.63
2019-01-26T05:05:56.217Z,49.35
2019-01-26T05:08:25.777Z,47.90
2019-01-26T05:10:55.280Z,36.93
2019-01-26T05:13:24.843Z,58.00
2019-01-26T05:15:54.330Z,40.50
2019-01-26T05:18:23.915Z,34.70
2019-01-26T05:20:53.362Z,39.75
2019-01-26T05:23:22.859Z,38.35
2019-01-26T05:25:52.352Z,34.65
2019-01-26T05:28:21.928Z,43.90
2019-01-26T05:30:51.410Z,33.38
2019-01-26T05:33:20.912Z,38.10
2019-01-26T05:35:50.471Z,37.38
2019-01-26T05:38:20.359Z,35.52
2019-01-26T05:40:50.209Z,39.40
2019-01-26T05:43:19.678Z,36.60
2019-01-26T05:45:49.153Z,29.05
2019-01-26T05:48:18.705Z,31.80
2019-01-26T05:50:48.171Z,36.60
2019-01-26T05:53:17.662Z,24.35
2019-01-26T05:55:47.184Z,33.92
2019-01-26T05:58:16.671Z,28.52
2019-01-26T06:00:46.142Z,26.48
2019-01-26T06:03:16.144Z,28.92
2019-01-26T06:05:46.270Z,30.88
2019-01-26T06:08:15.744Z,28.75
2019-01-26T06:10:45.275Z,26.07
2019-01-26T06:13:14.782Z,28.60
2019-01-26T06:15:44.273Z,29.87
2019-01-26T06:18:13.831Z,26.30
2019-01-26T06:20:43.317Z,26.07
2019-01-26T06:23:12.801Z,24.55
2019-01-26T06:25:42.732Z,29.40
2019-01-26T06:28:12.207Z,26.17
2019-01-26T06:30:41.692Z,27.15
2019-01-26T06:33:11.208Z,24.18
2019-01-26T06:35:40.694Z,23.55
2019-01-26T06:38:10.195Z,29.02
2019-01-26T06:40:39.761Z,26.33
2019-01-26T06:43:09.306Z,25.88
2019-01-26T06:45:38.759Z,23.52
2019-01-26T06:48:08.347Z,22.55
2019-01-26T06:50:37.825Z,22.17
2019-01-26T06:53:07.339Z,25.48
2019-01-26T06:55:36.868Z,22.48
2019-01-26T06:58:06.344Z,22.00
2019-01-26T07:00:35.849Z,30.60
2019-01-26T07:03:05.374Z,24.55
2019-01-26T07:05:48.393Z,23.40
2019-01-26T07:08:18.675Z,23.83
2019-01-26T07:10:48.553Z,18.77
2019-01-26T07:13:18.130Z,26.85
2019-01-26T07:15:47.663Z,20.92
2019-01-26T07:18:17.135Z,23.40
2019-01-26T07:20:46.686Z,22.52
2019-01-26T07:23:16.191Z,33.65
2019-01-26T07:25:45.675Z,28.90
2019-01-26T07:28:15.171Z,27.93
2019-01-26T07:30:45.407Z,24.05
2019-01-26T07:33:14.918Z,30.17
2019-01-26T07:35:44.379Z,34.05
2019-01-26T07:38:13.999Z,24.07
2019-01-26T07:40:43.545Z,31.17
2019-01-26T07:43:13.037Z,37.98
2019-01-26T07:45:42.555Z,36.83
2019-01-26T07:48:16.770Z,31.48
2019-01-26T07:50:43.695Z,30.48
2019-01-26T07:53:13.643Z,32.50
2019-01-26T07:55:43.130Z,37.25
2019-01-26T07:58:12.737Z,32.15
2019-01-26T08:00:42.254Z,48.90
2019-01-26T08:03:11.721Z,34.53
2019-01-26T08:05:41.193Z,32.03
2019-01-26T08:08:10.699Z,41.02
2019-01-26T08:10:40.237Z,58.17
2019-01-26T08:13:09.846Z,43.02
2019-01-26T08:15:39.578Z,31.05
2019-01-26T08:18:09.098Z,29.65
2019-01-26T08:20:38.600Z,33.75
2019-01-26T08:23:08.192Z,27.32
2019-01-26T08:25:37.688Z,32.70
2019-01-26T08:28:07.184Z,24.52
2019-01-26T08:30:36.706Z,30.82
2019-01-26T08:33:06.186Z,32.98
2019-01-26T08:35:35.689Z,27.93
2019-01-26T08:38:12.299Z,23.87
2019-01-26T08:40:42.504Z,26.23
2019-01-26T08:43:12.027Z,26.23
2019-01-26T08:45:41.538Z,30.25
2019-01-26T08:48:11.102Z,25.92
2019-01-26T08:50:40.605Z,24.37
2019-01-26T08:53:10.118Z,24.43
2019-01-26T08:55:39.599Z,23.80
2019-01-26T08:58:09.058Z,24.80
2019-01-26T09:00:38.791Z,21.33
2019-01-26T09:03:15.936Z,21.80
2019-01-26T09:05:56.311Z,22.10
2019-01-26T09:08:25.870Z,23.38
2019-01-26T09:10:55.359Z,22.48
2019-01-26T09:13:24.944Z,25.05
2019-01-26T09:15:54.451Z,16.10
2019-01-26T09:18:23.903Z,29.60
2019-01-26T09:20:54.060Z,17.70
2019-01-26T09:23:23.574Z,22.02
2019-01-26T09:25:53.062Z,22.10
2019-01-26T09:28:22.865Z,18.50
2019-01-26T09:30:52.411Z,20.82
2019-01-26T09:33:21.898Z,16.90
2019-01-26T09:35:51.420Z,14.70
2019-01-26T09:38:20.895Z,16.32
2019-01-26T09:40:50.389Z,15.28
2019-01-26T09:43:20.118Z,19.00
2019-01-26T09:45:49.585Z,16.60
2019-01-26T09:48:19.052Z,20.43
2019-01-26T09:50:48.542Z,16.48
2019-01-26T09:53:18.018Z,12.13
2019-01-26T09:55:47.503Z,12.98
2019-01-26T09:58:17.038Z,15.95
2019-01-26T10:00:46.522Z,17.57
2019-01-26T10:03:16.013Z,13.05
2019-01-26T10:05:46.132Z,11.43
2019-01-26T10:08:15.636Z,10.82
2019-01-26T10:10:45.144Z,14.00
2019-01-26T10:13:14.740Z,16.42
2019-01-26T10:15:44.211Z,12.85
2019-01-26T10:18:13.892Z,12.90
2019-01-26T10:20:44.528Z,7.90
2019-01-26T10:23:14.035Z,21.55
2019-01-26T10:25:48.541Z,17.30
2019-01-26T10:28:15.686Z,12.95
2019-01-26T10:30:47.206Z,10.95
2019-01-26T10:33:16.760Z,15.60
2019-01-26T10:35:58.246Z,11.65
2019-01-26T10:38:27.730Z,10.18
2019-01-26T10:40:56.978Z,7.47
2019-01-26T10:43:28.616Z,7.75
2019-01-26T10:45:58.107Z,9.25
2019-01-26T10:48:27.594Z,6.62
2019-01-26T10:50:57.091Z,8.20
2019-01-26T10:53:26.587Z,10.10
2019-01-26T10:55:56.074Z,8.23
2019-01-26T10:58:25.661Z,11.28
2019-01-26T11:00:55.152Z,11.22
2019-01-26T11:03:24.635Z,10.82
2019-01-26T11:05:54.332Z,6.33
2019-01-26T11:08:23.840Z,6.78
2019-01-26T11:10:53.350Z,6.47
2019-01-26T11:13:22.874Z,7.83
2019-01-26T11:15:52.364Z,6.97
2019-01-26T11:18:21.867Z,7.33
2019-01-26T11:20:51.394Z,6.20
2019-01-26T11:23:20.951Z,8.85
2019-01-26T11:25:50.458Z,7.87
2019-01-26T11:28:20.570Z,10.60
2019-01-26T11:30:50.051Z,8.28
2019-01-26T11:33:19.606Z,11.73
2019-01-26T11:35:49.203Z,16.17
2019-01-26T11:38:18.697Z,28.70
2019-01-26T11:40:48.251Z,10.25
2019-01-26T11:43:17.776Z,10.80
2019-01-26T11:45:48.883Z,10.78
2019-01-26T11:48:22.562Z,9.83
2019-01-26T11:50:59.778Z,11.28
2019-01-26T11:53:29.566Z,16.32
2019-01-26T11:56:00.717Z,7.42
2019-01-26T11:58:30.240Z,11.23
2019-01-26T12:01:01.353Z,6.58
2019-01-26T12:03:38.216Z,5.53
2019-01-26T12:06:18.333Z,8.20
2019-01-26T12:08:48.192Z,4.33
2019-01-26T12:11:17.679Z,6.80
2019-01-26T12:13:47.189Z,5.15
2019-01-26T12:16:16.730Z,4.30
2019-01-26T12:18:46.421Z,5.40
2019-01-26T12:21:15.911Z,4.53
2019-01-26T12:23:45.423Z,5.12
2019-01-26T12:26:14.884Z,4.43
2019-01-26T12:28:44.371Z,3.60
2019-01-26T12:31:14.237Z,5.63
2019-01-26T12:33:43.739Z,3.15
2019-01-26T12:36:13.210Z,4.00
2019-01-26T12:38:42.717Z,5.80
2019-01-26T12:41:12.198Z,3.72
2019-01-26T12:43:41.687Z,7.40
2019-01-26T12:46:11.213Z,3.00
2019-01-26T12:48:40.681Z,3.83
2019-01-26T12:51:10.220Z,3.72
2019-01-26T12:53:39.815Z,5.45
2019-01-26T12:56:09.335Z,5.20
2019-01-26T12:58:38.806Z,4.15
2019-01-26T13:01:08.323Z,4.60
2019-01-26T13:03:37.887Z,4.95
2019-01-26T13:06:07.529Z,4.53
2019-01-26T13:08:37.135Z,5.60
2019-01-26T13:11:14.095Z,5.08
2019-01-26T13:13:44.032Z,6.50
2019-01-26T13:16:13.772Z,6.25
2019-01-26T13:18:43.602Z,5.03
2019-01-26T13:21:13.079Z,6.67
2019-01-26T13:23:42.579Z,4.87
2019-01-26T13:26:12.478Z,4.78
2019-01-26T13:28:42.007Z,3.60
2019-01-26T13:31:11.490Z,5.08
2019-01-26T13:33:41.003Z,5.15
2019-01-26T13:36:11.052Z,5.60
2019-01-26T13:38:40.557Z,6.00
2019-01-26T13:41:10.008Z,5.00
2019-01-26T13:43:39.507Z,6.53
2019-01-26T13:46:09.006Z,7.80
2019-01-26T13:48:38.513Z,6.72
2019-01-26T13:51:12.901Z,11.18
2019-01-26T13:53:39.265Z,4.80
2019-01-26T13:56:08.709Z,5.42
2019-01-26T13:58:38.338Z,6.67
2019-01-26T14:01:07.818Z,5.83
2019-01-26T14:03:37.296Z,6.45
2019-01-26T14:06:26.174Z,5.85
2019-01-26T14:08:55.657Z,7.78
2019-01-26T14:11:25.190Z,6.47
2019-01-26T14:13:54.782Z,7.75
2019-01-26T14:16:24.288Z,6.70
2019-01-26T14:18:53.790Z,7.15
2019-01-26T14:21:23.314Z,7.85
2019-01-26T14:23:53.458Z,7.92
2019-01-26T14:26:22.958Z,9.83
2019-01-26T14:28:52.518Z,9.25
2019-01-26T14:31:21.998Z,7.87
2019-01-26T14:33:51.524Z,9.58
2019-01-26T14:36:21.184Z,9.23
2019-01-26T14:38:50.641Z,8.98
2019-01-26T14:41:20.566Z,9.08
2019-01-26T14:43:50.596Z,9.73
2019-01-26T14:46:20.081Z,9.45
2019-01-26T14:48:49.590Z,9.58
2019-01-26T14:51:19.092Z,9.45
2019-01-26T14:53:48.646Z,8.53
2019-01-26T14:56:18.318Z,8.43
2019-01-26T14:58:47.872Z,9.43
2019-01-26T15:01:17.378Z,8.83
2019-01-26T15:03:46.827Z,8.23
2019-01-26T15:06:16.410Z,9.10
2019-01-26T15:08:45.932Z,8.35
2019-01-26T15:11:15.405Z,9.00
2019-01-26T15:13:45.012Z,10.43
2019-01-26T15:16:14.597Z,11.22
2019-01-26T15:18:44.094Z,8.70
2019-01-26T15:21:13.839Z,13.70
2019-01-26T15:23:43.331Z,8.00
2019-01-26T15:26:12.812Z,8.23
2019-01-26T15:28:43.072Z,8.20
2019-01-26T15:31:12.594Z,8.85
2019-01-26T15:33:42.078Z,8.33
2019-01-26T15:36:12.106Z,8.58
2019-01-26T15:38:41.571Z,9.45
2019-01-26T15:41:11.033Z,8.53
2019-01-26T15:43:41.560Z,10.03
2019-01-26T15:46:11.042Z,8.83
2019-01-26T15:48:40.518Z,8.83
2019-01-26T15:51:10.049Z,12.98
2019-01-26T15:53:39.593Z,9.25
2019-01-26T15:56:09.074Z,11.73
2019-01-26T15:58:38.688Z,14.65
2019-01-26T16:01:08.698Z,12.25
2019-01-26T16:03:38.304Z,11.88
2019-01-26T16:06:07.971Z,13.38
2019-01-26T16:08:37.537Z,13.58
2019-01-26T16:11:07.001Z,10.38
2019-01-26T16:13:36.636Z,11.08
2019-01-26T16:16:06.293Z,12.30
2019-01-26T16:18:35.852Z,13.78
2019-01-26T16:21:05.626Z,14.98
2019-01-26T16:23:35.189Z,11.88
2019-01-26T16:26:04.764Z,10.35
2019-01-26T16:28:34.449Z,12.75
2019-01-26T16:31:03.954Z,17.50
2019-01-26T16:33:33.456Z,17.55
2019-01-26T16:36:03.000Z,14.23
2019-01-26T16:38:32.493Z,15.43
2019-01-26T16:41:01.982Z,15.35
2019-01-26T16:43:31.493Z,14.90
2019-01-26T16:46:00.990Z,15.80
2019-01-26T16:48:30.924Z,16.35
2019-01-26T16:51:00.936Z,27.25
2019-01-26T16:53:30.968Z,34.18
2019-01-26T16:56:00.996Z,32.60
2019-01-26T16:58:30.506Z,36.55
2019-01-26T17:01:00.409Z,28.52
2019-01-26T17:03:29.917Z,25.70
2019-01-26T17:05:59.408Z,22.42
2019-01-26T17:08:28.901Z,14.63
2019-01-26T17:10:58.448Z,15.43
2019-01-26T17:13:28.039Z,16.95
2019-01-26T17:15:57.582Z,10.57
2019-01-26T17:18:27.118Z,10.63
2019-01-26T17:20:57.058Z,14.43
2019-01-26T17:23:26.549Z,9.03
2019-01-26T17:25:56.023Z,9.30
2019-01-26T17:28:25.577Z,10.17
2019-01-26T17:30:55.095Z,10.27
2019-01-26T17:33:24.883Z,10.37
2019-01-26T17:35:54.802Z,7.87
2019-01-26T17:38:24.718Z,14.40
2019-01-26T17:40:54.784Z,8.67
2019-01-26T17:43:24.728Z,8.30
2019-01-26T17:45:54.317Z,10.33
2019-01-26T17:48:23.830Z,9.53
2019-01-26T17:50:53.455Z,9.50
2019-01-26T17:53:23.169Z,9.43
2019-01-26T17:55:57.056Z,9.20
2019-01-26T17:58:26.822Z,8.43
2019-01-26T18:00:57.266Z,9.00
2019-01-26T18:03:26.843Z,8.00
2019-01-26T18:05:56.336Z,8.40
2019-01-26T18:08:25.953Z,10.27
2019-01-26T18:10:55.623Z,9.23
2019-01-26T18:13:25.298Z,9.37
2019-01-26T18:15:54.772Z,10.33
2019-01-26T18:18:24.574Z,11.63
2019-01-26T18:20:56.353Z,13.17
2019-01-26T18:23:26.616Z,10.90
2019-01-26T18:25:56.594Z,11.13
2019-01-26T18:28:26.111Z,13.87
2019-01-26T18:30:55.655Z,11.97
2019-01-26T18:33:25.260Z,10.30
2019-01-26T18:35:54.964Z,12.13
2019-01-26T18:38:24.411Z,13.83
2019-01-26T18:40:53.953Z,11.63
2019-01-26T18:43:23.526Z,14.30
2019-01-26T18:45:53.016Z,15.50
2019-01-26T18:48:22.512Z,16.40
2019-01-26T18:50:56.083Z,22.30
2019-01-26T18:53:23.401Z,18.57
2019-01-26T18:55:52.885Z,21.80
2019-01-26T18:58:22.393Z,24.70
2019-01-26T19:00:51.966Z,23.03
2019-01-26T19:03:29.011Z,26.13
2019-01-26T19:06:00.192Z,23.67
2019-01-26T19:08:29.696Z,26.80
2019-01-26T19:10:59.202Z,21.70
2019-01-26T19:13:28.793Z,25.83
2019-01-26T19:15:58.275Z,24.10
2019-01-26T19:18:27.883Z,24.63
2019-01-26T19:21:03.144Z,20.50
2019-01-26T19:23:28.638Z,22.20
2019-01-26T19:25:58.289Z,26.73
2019-01-26T19:28:27.828Z,21.80
2019-01-26T19:30:57.310Z,23.20
2019-01-26T19:33:26.823Z,23.23
2019-01-26T19:35:56.327Z,24.80
2019-01-26T19:38:25.815Z,21.30
2019-01-26T19:40:55.859Z,26.00
2019-01-26T19:43:25.325Z,18.43
2019-01-26T19:45:54.843Z,19.95
2019-01-26T19:48:24.603Z,24.87
2019-01-26T19:50:54.151Z,24.95
2019-01-26T19:53:23.667Z,21.60
2019-01-26T19:55:53.225Z,20.52
2019-01-26T19:58:22.711Z,21.20
2019-01-26T20:00:52.251Z,25.53
2019-01-26T20:03:21.848Z,24.95
2019-01-26T20:05:55.496Z,25.20
2019-01-26T20:08:25.065Z,27.23
2019-01-26T20:10:54.865Z,27.47
2019-01-26T20:13:24.363Z,30.97
2019-01-26T20:15:53.827Z,31.13
2019-01-26T20:18:23.329Z,31.30
2019-01-26T20:20:52.813Z,30.60
2019-01-26T20:23:22.300Z,37.73
2019-01-26T20:25:51.849Z,32.27
2019-01-26T20:28:21.356Z,30.80
2019-01-26T20:30:51.167Z,27.83
2019-01-26T20:33:20.870Z,33.20
2019-01-26T20:35:50.425Z,30.40
2019-01-26T20:38:19.990Z,34.40
2019-01-26T20:40:49.591Z,32.93
2019-01-26T20:43:19.093Z,32.47
2019-01-26T20:45:48.643Z,39.70
2019-01-26T20:48:18.183Z,37.83
2019-01-26T20:50:47.714Z,34.60
2019-01-26T20:53:17.193Z,33.83
2019-01-26T20:55:46.765Z,41.53
2019-01-26T20:58:16.236Z,39.05
2019-01-26T21:00:45.877Z,39.85
2019-01-26T21:03:15.790Z,45.33
2019-01-26T21:05:45.246Z,37.57
2019-01-26T21:08:15.073Z,39.10
2019-01-26T21:10:44.662Z,41.17
2019-01-26T21:13:16.386Z,40.50
2019-01-26T21:15:45.385Z,42.78
2019-01-26T21:18:14.995Z,41.70
2019-01-26T21:20:44.456Z,50.17
2019-01-26T21:23:13.944Z,51.42
2019-01-26T21:25:43.487Z,46.00
2019-01-26T21:28:13.058Z,48.60
2019-01-26T21:30:42.579Z,55.27
2019-01-26T21:33:12.071Z,48.97
2019-01-26T21:35:41.542Z,49.13
2019-01-26T21:38:11.096Z,51.53
2019-01-26T21:40:40.645Z,49.43
2019-01-26T21:43:10.164Z,51.73
2019-01-26T21:45:40.175Z,51.27
2019-01-26T21:48:09.695Z,52.57
2019-01-26T21:50:39.188Z,49.17
2019-01-26T21:53:08.742Z,53.90
2019-01-26T21:55:38.237Z,48.83
2019-01-26T21:58:07.730Z,55.73
2019-01-26T22:00:37.244Z,55.90
2019-01-26T22:03:06.877Z,48.63
2019-01-26T22:05:36.799Z,54.40
2019-01-26T22:08:06.398Z,52.13
2019-01-26T22:10:36.250Z,51.87
2019-01-26T22:13:05.895Z,48.60
2019-01-26T22:15:37.024Z,56.00
2019-01-26T22:18:07.211Z,46.60
2019-01-26T22:20:36.766Z,48.17
2019-01-26T22:23:06.812Z,53.30
2019-01-26T22:25:36.381Z,56.53
2019-01-26T22:28:06.333Z,53.33
2019-01-26T22:30:37.322Z,51.65
2019-01-26T22:33:06.856Z,50.50
2019-01-26T22:35:36.333Z,48.30
2019-01-26T22:38:05.980Z,54.13
2019-01-26T22:40:37.521Z,53.13
2019-01-26T22:43:07.595Z,50.17
2019-01-26T22:45:37.161Z,50.23
2019-01-26T22:48:06.800Z,54.27
2019-01-26T22:50:36.366Z,50.83
2019-01-26T22:53:06.340Z,50.73
2019-01-26T22:55:35.914Z,47.27
2019-01-26T22:58:06.511Z,52.10
2019-01-26T23:00:56.138Z,47.63
2019-01-26T23:03:35.516Z,52.10
2019-01-26T23:06:33.388Z,48.38
2019-01-26T23:09:13.215Z,41.03
2019-01-26T23:12:11.810Z,51.33
2019-01-26T23:15:07.013Z,42.20
2019-01-26T23:18:08.236Z,51.20
2019-01-26T23:20:45.409Z,43.50
2019-01-26T23:23:46.551Z,42.73
2019-01-26T23:26:35.556Z,42.50
2019-01-26T23:29:15.710Z,41.73
2019-01-26T23:31:45.220Z,47.93
2019-01-26T23:34:14.735Z,42.73
2019-01-26T23:36:44.331Z,44.27
2019-01-26T23:39:13.801Z,44.97
2019-01-26T23:41:43.374Z,46.23
2019-01-26T23:44:12.872Z,42.58
2019-01-26T23:46:42.363Z,45.17
2019-01-26T23:49:11.922Z,46.92
2019-01-26T23:51:42.053Z,45.70
2019-01-26T23:54:11.520Z,45.40
2019-01-26T23:56:41.026Z,45.52
2019-01-26T23:59:11.002Z,46.85
